Kossuth, Iowa
Current Conditions -  °F | °C
As of 1:53 AM on Thursday 27 Nov 2014 (Local Time) from KBRL Reporting Station
Haze Haze  
Wind Chill: 18°   Ceiling: 1900
Heat Index: 26°   Visibility: 5mi
Dew Point: 24°   Wind: 8mph
Humidity: 92%   Direction: 330°NNW
Pressure: 30.32"   Gusts: NA
Location:  41.0155°N, 91.1055°W
Report Text: KBRL 270753Z AUTO 33007KT 5SM BR OVC019 M03/M04 A3032 RMK AO2 SLP275 T10331044 $
Loading
Personal Weather Stations






























Interactive Weather Map New forecast layout! Learn more

10-Day Weather Forecast

Advertisements
Track Severe Weather on mobile